sensor_id;sensor_type;location;lat;lon;timestamp;P1;durP1;ratioP1;P2;durP2;ratioP2
34924;SDS011;21130;51.728;8.748;2022-12-05T00:02:21;22.55;;;16.90;;
34924;SDS011;21130;51.728;8.748;2022-12-05T00:04:47;23.20;;;17.35;;
34924;SDS011;21130;51.728;8.748;2022-12-05T00:07:14;22.65;;;16.25;;
34924;SDS011;21130;51.728;8.748;2022-12-05T00:09:40;21.65;;;16.13;;
34924;SDS011;21130;51.728;8.748;2022-12-05T00:12:08;20.42;;;15.85;;
34924;SDS011;21130;51.728;8.748;2022-12-05T00:14:35;21.50;;;16.48;;
34924;SDS011;21130;51.728;8.748;2022-12-05T00:17:01;21.08;;;15.85;;
34924;SDS011;21130;51.728;8.748;2022-12-05T00:19:28;21.52;;;16.48;;
34924;SDS011;21130;51.728;8.748;2022-12-05T00:21:54;21.55;;;16.35;;
34924;SDS011;21130;51.728;8.748;2022-12-05T00:24:21;24.05;;;16.48;;
34924;SDS011;21130;51.728;8.748;2022-12-05T00:26:48;22.73;;;16.15;;
34924;SDS011;21130;51.728;8.748;2022-12-05T00:29:16;21.25;;;15.95;;
34924;SDS011;21130;51.728;8.748;2022-12-05T00:31:42;21.25;;;15.73;;
34924;SDS011;21130;51.728;8.748;2022-12-05T00:34:09;19.58;;;14.57;;
34924;SDS011;21130;51.728;8.748;2022-12-05T00:36:35;18.55;;;15.40;;
34924;SDS011;21130;51.728;8.748;2022-12-05T00:39:04;21.25;;;16.60;;
34924;SDS011;21130;51.728;8.748;2022-12-05T00:41:32;22.38;;;15.52;;
34924;SDS011;21130;51.728;8.748;2022-12-05T00:43:59;23.65;;;16.77;;
34924;SDS011;21130;51.728;8.748;2022-12-05T00:46:29;22.95;;;15.95;;
34924;SDS011;21130;51.728;8.748;2022-12-05T00:48:57;22.63;;;17.35;;
34924;SDS011;21130;51.728;8.748;2022-12-05T00:51:25;24.00;;;16.75;;
34924;SDS011;21130;51.728;8.748;2022-12-05T00:53:54;22.70;;;16.50;;
34924;SDS011;21130;51.728;8.748;2022-12-05T00:56:24;23.98;;;17.15;;
34924;SDS011;21130;51.728;8.748;2022-12-05T00:58:52;22.08;;;16.88;;
34924;SDS011;21130;51.728;8.748;2022-12-05T01:01:20;22.13;;;16.80;;
34924;SDS011;21130;51.728;8.748;2022-12-05T01:03:51;21.17;;;16.88;;
34924;SDS011;21130;51.728;8.748;2022-12-05T01:06:21;22.17;;;16.60;;
34924;SDS011;21130;51.728;8.748;2022-12-05T01:08:49;23.88;;;17.13;;
34924;SDS011;21130;51.728;8.748;2022-12-05T01:11:17;22.73;;;17.02;;
34924;SDS011;21130;51.728;8.748;2022-12-05T01:13:44;30.95;;;18.02;;
34924;SDS011;21130;51.728;8.748;2022-12-05T01:16:12;25.02;;;18.35;;
34924;SDS011;21130;51.728;8.748;2022-12-05T01:18:40;21.50;;;17.33;;
34924;SDS011;21130;51.728;8.748;2022-12-05T01:21:08;22.33;;;17.17;;
34924;SDS011;21130;51.728;8.748;2022-12-05T01:23:34;22.60;;;17.15;;
34924;SDS011;21130;51.728;8.748;2022-12-05T01:26:03;24.95;;;17.52;;
34924;SDS011;21130;51.728;8.748;2022-12-05T01:28:32;24.95;;;17.38;;
34924;SDS011;21130;51.728;8.748;2022-12-05T01:30:58;23.88;;;18.08;;
34924;SDS011;21130;51.728;8.748;2022-12-05T01:33:31;21.77;;;17.58;;
34924;SDS011;21130;51.728;8.748;2022-12-05T01:35:58;24.00;;;18.52;;
34924;SDS011;21130;51.728;8.748;2022-12-05T01:38:27;25.50;;;17.90;;
34924;SDS011;21130;51.728;8.748;2022-12-05T01:41:00;23.75;;;17.08;;
34924;SDS011;21130;51.728;8.748;2022-12-05T01:43:28;24.75;;;18.23;;
34924;SDS011;21130;51.728;8.748;2022-12-05T01:45:54;27.73;;;18.38;;
34924;SDS011;21130;51.728;8.748;2022-12-05T01:48:21;23.60;;;17.98;;
34924;SDS011;21130;51.728;8.748;2022-12-05T01:50:51;26.70;;;17.63;;
34924;SDS011;21130;51.728;8.748;2022-12-05T01:53:19;24.17;;;18.20;;
34924;SDS011;21130;51.728;8.748;2022-12-05T01:55:48;23.80;;;17.83;;
34924;SDS011;21130;51.728;8.748;2022-12-05T01:58:16;22.65;;;17.13;;
34924;SDS011;21130;51.728;8.748;2022-12-05T02:00:44;23.50;;;17.55;;
34924;SDS011;21130;51.728;8.748;2022-12-05T02:03:12;23.63;;;18.15;;
34924;SDS011;21130;51.728;8.748;2022-12-05T02:05:42;24.58;;;18.23;;
34924;SDS011;21130;51.728;8.748;2022-12-05T02:08:13;24.52;;;16.63;;
34924;SDS011;21130;51.728;8.748;2022-12-05T02:10:40;23.63;;;17.40;;
34924;SDS011;21130;51.728;8.748;2022-12-05T02:13:15;23.83;;;16.75;;
34924;SDS011;21130;51.728;8.748;2022-12-05T02:15:54;22.70;;;16.25;;
34924;SDS011;21130;51.728;8.748;2022-12-05T02:18:31;25.13;;;17.58;;
34924;SDS011;21130;51.728;8.748;2022-12-05T02:21:34;22.90;;;17.08;;
34924;SDS011;21130;51.728;8.748;2022-12-05T02:24:17;24.05;;;17.02;;
34924;SDS011;21130;51.728;8.748;2022-12-05T02:27:05;23.58;;;17.85;;
34924;SDS011;21130;51.728;8.748;2022-12-05T02:30:03;23.55;;;17.10;;
34924;SDS011;21130;51.728;8.748;2022-12-05T02:32:38;22.73;;;16.88;;
34924;SDS011;21130;51.728;8.748;2022-12-05T02:35:19;23.15;;;16.50;;
34924;SDS011;21130;51.728;8.748;2022-12-05T02:37:53;23.15;;;17.27;;
34924;SDS011;21130;51.728;8.748;2022-12-05T02:40:28;20.08;;;16.65;;
34924;SDS011;21130;51.728;8.748;2022-12-05T02:43:02;22.23;;;16.20;;
34924;SDS011;21130;51.728;8.748;2022-12-05T02:45:37;22.67;;;17.25;;
34924;SDS011;21130;51.728;8.748;2022-12-05T02:48:07;21.17;;;16.48;;
34924;SDS011;21130;51.728;8.748;2022-12-05T02:50:36;21.08;;;16.95;;
34924;SDS011;21130;51.728;8.748;2022-12-05T02:53:07;20.65;;;16.63;;
34924;SDS011;21130;51.728;8.748;2022-12-05T02:55:38;22.10;;;17.27;;
34924;SDS011;21130;51.728;8.748;2022-12-05T02:58:11;21.00;;;16.52;;
34924;SDS011;21130;51.728;8.748;2022-12-05T03:00:45;22.20;;;16.88;;
34924;SDS011;21130;51.728;8.748;2022-12-05T03:03:15;19.55;;;15.82;;
34924;SDS011;21130;51.728;8.748;2022-12-05T03:05:46;21.77;;;16.50;;
34924;SDS011;21130;51.728;8.748;2022-12-05T03:08:19;20.50;;;14.85;;
34924;SDS011;21130;51.728;8.748;2022-12-05T03:10:50;18.35;;;15.30;;
34924;SDS011;21130;51.728;8.748;2022-12-05T03:13:20;21.70;;;15.80;;
34924;SDS011;21130;51.728;8.748;2022-12-05T03:15:54;17.85;;;15.07;;
34924;SDS011;21130;51.728;8.748;2022-12-05T03:18:24;21.35;;;14.65;;
34924;SDS011;21130;51.728;8.748;2022-12-05T03:20:56;19.80;;;15.07;;
34924;SDS011;21130;51.728;8.748;2022-12-05T03:23:26;21.23;;;15.52;;
34924;SDS011;21130;51.728;8.748;2022-12-05T03:25:58;19.90;;;15.65;;
34924;SDS011;21130;51.728;8.748;2022-12-05T03:28:37;20.58;;;15.30;;
34924;SDS011;21130;51.728;8.748;2022-12-05T03:31:14;22.25;;;15.85;;
34924;SDS011;21130;51.728;8.748;2022-12-05T03:33:45;19.55;;;15.48;;
34924;SDS011;21130;51.728;8.748;2022-12-05T03:36:15;20.52;;;15.60;;
34924;SDS011;21130;51.728;8.748;2022-12-05T03:38:46;19.45;;;15.25;;
34924;SDS011;21130;51.728;8.748;2022-12-05T03:41:19;18.80;;;14.60;;
34924;SDS011;21130;51.728;8.748;2022-12-05T03:43:51;21.58;;;14.82;;
34924;SDS011;21130;51.728;8.748;2022-12-05T03:46:25;18.02;;;14.15;;
34924;SDS011;21130;51.728;8.748;2022-12-05T03:48:54;19.48;;;14.05;;
34924;SDS011;21130;51.728;8.748;2022-12-05T03:51:26;17.77;;;14.18;;
34924;SDS011;21130;51.728;8.748;2022-12-05T03:54:01;17.65;;;13.77;;
34924;SDS011;21130;51.728;8.748;2022-12-05T03:56:33;18.50;;;13.70;;
34924;SDS011;21130;51.728;8.748;2022-12-05T03:59:04;17.10;;;13.85;;
34924;SDS011;21130;51.728;8.748;2022-12-05T04:01:38;18.55;;;13.77;;
34924;SDS011;21130;51.728;8.748;2022-12-05T04:04:09;16.13;;;13.18;;
34924;SDS011;21130;51.728;8.748;2022-12-05T04:06:41;16.08;;;12.35;;
34924;SDS011;21130;51.728;8.748;2022-12-05T04:09:13;16.60;;;13.15;;
34924;SDS011;21130;51.728;8.748;2022-12-05T04:11:46;18.75;;;13.57;;
34924;SDS011;21130;51.728;8.748;2022-12-05T04:14:16;15.75;;;13.27;;
34924;SDS011;21130;51.728;8.748;2022-12-05T04:16:49;17.10;;;13.60;;
34924;SDS011;21130;51.728;8.748;2022-12-05T04:19:29;19.42;;;13.27;;
34924;SDS011;21130;51.728;8.748;2022-12-05T04:22:16;17.75;;;13.13;;
34924;SDS011;21130;51.728;8.748;2022-12-05T04:24:43;15.27;;;12.10;;
34924;SDS011;21130;51.728;8.748;2022-12-05T04:27:30;16.80;;;13.05;;
34924;SDS011;21130;51.728;8.748;2022-12-05T04:30:05;18.33;;;14.35;;
34924;SDS011;21130;51.728;8.748;2022-12-05T04:32:37;16.63;;;13.32;;
34924;SDS011;21130;51.728;8.748;2022-12-05T04:35:10;15.90;;;13.10;;
34924;SDS011;21130;51.728;8.748;2022-12-05T04:37:41;17.15;;;13.75;;
34924;SDS011;21130;51.728;8.748;2022-12-05T04:40:12;16.08;;;13.50;;
34924;SDS011;21130;51.728;8.748;2022-12-05T04:42:44;16.05;;;13.00;;
34924;SDS011;21130;51.728;8.748;2022-12-05T04:45:14;17.00;;;13.40;;
34924;SDS011;21130;51.728;8.748;2022-12-05T04:47:47;18.27;;;14.52;;
34924;SDS011;21130;51.728;8.748;2022-12-05T04:50:18;17.55;;;13.65;;
34924;SDS011;21130;51.728;8.748;2022-12-05T04:52:48;18.45;;;14.27;;
34924;SDS011;21130;51.728;8.748;2022-12-05T04:55:19;17.02;;;15.15;;
34924;SDS011;21130;51.728;8.748;2022-12-05T04:57:52;17.40;;;14.23;;
34924;SDS011;21130;51.728;8.748;2022-12-05T05:00:23;17.88;;;14.18;;
34924;SDS011;21130;51.728;8.748;2022-12-05T05:02:53;18.48;;;15.02;;
34924;SDS011;21130;51.728;8.748;2022-12-05T05:05:23;19.90;;;15.45;;
34924;SDS011;21130;51.728;8.748;2022-12-05T05:07:51;19.60;;;14.90;;
34924;SDS011;21130;51.728;8.748;2022-12-05T05:10:21;18.85;;;14.85;;
34924;SDS011;21130;51.728;8.748;2022-12-05T05:12:52;17.02;;;13.27;;
34924;SDS011;21130;51.728;8.748;2022-12-05T05:15:19;17.55;;;14.70;;
34924;SDS011;21130;51.728;8.748;2022-12-05T05:17:46;18.02;;;13.82;;
34924;SDS011;21130;51.728;8.748;2022-12-05T05:20:14;15.68;;;12.93;;
34924;SDS011;21130;51.728;8.748;2022-12-05T05:22:51;18.80;;;14.52;;
34924;SDS011;21130;51.728;8.748;2022-12-05T05:25:19;18.35;;;14.70;;
34924;SDS011;21130;51.728;8.748;2022-12-05T05:27:47;16.05;;;13.57;;
34924;SDS011;21130;51.728;8.748;2022-12-05T05:30:15;18.48;;;13.77;;
34924;SDS011;21130;51.728;8.748;2022-12-05T05:32:42;21.13;;;15.30;;
34924;SDS011;21130;51.728;8.748;2022-12-05T05:35:09;17.55;;;14.27;;
34924;SDS011;21130;51.728;8.748;2022-12-05T05:37:37;16.80;;;13.52;;
34924;SDS011;21130;51.728;8.748;2022-12-05T05:40:04;18.48;;;14.40;;
34924;SDS011;21130;51.728;8.748;2022-12-05T05:42:31;17.85;;;14.75;;
34924;SDS011;21130;51.728;8.748;2022-12-05T05:44:58;19.13;;;14.02;;
34924;SDS011;21130;51.728;8.748;2022-12-05T05:47:24;18.00;;;14.00;;
34924;SDS011;21130;51.728;8.748;2022-12-05T05:49:51;17.77;;;15.07;;
34924;SDS011;21130;51.728;8.748;2022-12-05T05:52:17;19.17;;;14.98;;
34924;SDS011;21130;51.728;8.748;2022-12-05T05:54:45;19.85;;;15.30;;
34924;SDS011;21130;51.728;8.748;2022-12-05T05:57:12;19.35;;;15.32;;
34924;SDS011;21130;51.728;8.748;2022-12-05T05:59:38;18.75;;;14.35;;
34924;SDS011;21130;51.728;8.748;2022-12-05T06:02:05;16.88;;;14.73;;
34924;SDS011;21130;51.728;8.748;2022-12-05T06:04:33;18.10;;;14.70;;
34924;SDS011;21130;51.728;8.748;2022-12-05T06:07:00;16.88;;;14.70;;
34924;SDS011;21130;51.728;8.748;2022-12-05T06:09:26;18.48;;;14.10;;
34924;SDS011;21130;51.728;8.748;2022-12-05T06:11:54;19.17;;;14.02;;
34924;SDS011;21130;51.728;8.748;2022-12-05T06:14:21;19.85;;;14.45;;
34924;SDS011;21130;51.728;8.748;2022-12-05T06:16:47;18.38;;;15.50;;
34924;SDS011;21130;51.728;8.748;2022-12-05T06:19:14;18.63;;;15.05;;
34924;SDS011;21130;51.728;8.748;2022-12-05T06:21:41;17.60;;;14.82;;
34924;SDS011;21130;51.728;8.748;2022-12-05T06:24:08;18.40;;;13.95;;
34924;SDS011;21130;51.728;8.748;2022-12-05T06:26:35;16.05;;;13.90;;
34924;SDS011;21130;51.728;8.748;2022-12-05T06:29:03;18.52;;;14.25;;
34924;SDS011;21130;51.728;8.748;2022-12-05T06:31:29;16.92;;;13.65;;
34924;SDS011;21130;51.728;8.748;2022-12-05T06:33:58;18.77;;;13.90;;
34924;SDS011;21130;51.728;8.748;2022-12-05T06:36:25;17.20;;;13.95;;
34924;SDS011;21130;51.728;8.748;2022-12-05T06:38:54;17.05;;;14.00;;
34924;SDS011;21130;51.728;8.748;2022-12-05T06:41:21;19.30;;;14.35;;
34924;SDS011;21130;51.728;8.748;2022-12-05T06:43:50;18.65;;;14.07;;
34924;SDS011;21130;51.728;8.748;2022-12-05T06:46:19;18.38;;;14.32;;
34924;SDS011;21130;51.728;8.748;2022-12-05T06:48:46;18.98;;;14.25;;
34924;SDS011;21130;51.728;8.748;2022-12-05T06:51:15;17.52;;;14.10;;
34924;SDS011;21130;51.728;8.748;2022-12-05T06:53:42;17.85;;;13.75;;
34924;SDS011;21130;51.728;8.748;2022-12-05T06:56:09;17.35;;;13.57;;
34924;SDS011;21130;51.728;8.748;2022-12-05T06:58:37;17.13;;;13.55;;
34924;SDS011;21130;51.728;8.748;2022-12-05T07:01:04;17.95;;;14.07;;
34924;SDS011;21130;51.728;8.748;2022-12-05T07:03:53;18.67;;;14.02;;
34924;SDS011;21130;51.728;8.748;2022-12-05T07:06:20;17.63;;;13.23;;
34924;SDS011;21130;51.728;8.748;2022-12-05T07:08:47;19.63;;;13.52;;
34924;SDS011;21130;51.728;8.748;2022-12-05T07:11:13;19.60;;;14.55;;
34924;SDS011;21130;51.728;8.748;2022-12-05T07:13:40;16.88;;;13.02;;
34924;SDS011;21130;51.728;8.748;2022-12-05T07:16:06;19.13;;;14.10;;
34924;SDS011;21130;51.728;8.748;2022-12-05T07:18:33;17.88;;;14.07;;
34924;SDS011;21130;51.728;8.748;2022-12-05T07:21:03;20.42;;;15.20;;
34924;SDS011;21130;51.728;8.748;2022-12-05T07:23:31;20.17;;;14.57;;
34924;SDS011;21130;51.728;8.748;2022-12-05T07:25:58;17.63;;;13.73;;
34924;SDS011;21130;51.728;8.748;2022-12-05T07:28:24;18.63;;;14.15;;
34924;SDS011;21130;51.728;8.748;2022-12-05T07:30:57;20.23;;;14.95;;
34924;SDS011;21130;51.728;8.748;2022-12-05T07:33:25;17.98;;;14.15;;
34924;SDS011;21130;51.728;8.748;2022-12-05T07:35:52;20.25;;;14.48;;
34924;SDS011;21130;51.728;8.748;2022-12-05T07:38:20;19.23;;;14.82;;
34924;SDS011;21130;51.728;8.748;2022-12-05T07:40:46;19.38;;;14.82;;
34924;SDS011;21130;51.728;8.748;2022-12-05T07:43:13;20.60;;;14.43;;
34924;SDS011;21130;51.728;8.748;2022-12-05T07:45:39;18.65;;;13.85;;
34924;SDS011;21130;51.728;8.748;2022-12-05T07:48:06;18.52;;;14.15;;
34924;SDS011;21130;51.728;8.748;2022-12-05T07:50:33;17.88;;;13.77;;
34924;SDS011;21130;51.728;8.748;2022-12-05T07:52:59;20.88;;;14.43;;
34924;SDS011;21130;51.728;8.748;2022-12-05T07:55:27;20.75;;;14.93;;
34924;SDS011;21130;51.728;8.748;2022-12-05T07:57:53;18.30;;;13.82;;
34924;SDS011;21130;51.728;8.748;2022-12-05T08:00:20;21.50;;;15.45;;
34924;SDS011;21130;51.728;8.748;2022-12-05T08:02:47;19.60;;;15.75;;
34924;SDS011;21130;51.728;8.748;2022-12-05T08:05:17;18.88;;;15.18;;
34924;SDS011;21130;51.728;8.748;2022-12-05T08:07:44;20.05;;;15.70;;
34924;SDS011;21130;51.728;8.748;2022-12-05T08:10:10;19.63;;;14.85;;
34924;SDS011;21130;51.728;8.748;2022-12-05T08:12:39;19.45;;;15.23;;
34924;SDS011;21130;51.728;8.748;2022-12-05T08:15:06;20.15;;;14.70;;
34924;SDS011;21130;51.728;8.748;2022-12-05T08:17:33;19.80;;;14.48;;
34924;SDS011;21130;51.728;8.748;2022-12-05T08:20:00;20.00;;;15.63;;
34924;SDS011;21130;51.728;8.748;2022-12-05T08:22:27;20.20;;;15.70;;
34924;SDS011;21130;51.728;8.748;2022-12-05T08:24:54;19.02;;;14.73;;
34924;SDS011;21130;51.728;8.748;2022-12-05T08:27:20;19.92;;;15.20;;
34924;SDS011;21130;51.728;8.748;2022-12-05T08:29:48;19.92;;;15.27;;
34924;SDS011;21130;51.728;8.748;2022-12-05T08:32:15;20.10;;;15.50;;
34924;SDS011;21130;51.728;8.748;2022-12-05T08:34:41;22.38;;;17.17;;
34924;SDS011;21130;51.728;8.748;2022-12-05T08:37:08;25.58;;;18.65;;
34924;SDS011;21130;51.728;8.748;2022-12-05T08:39:34;23.45;;;17.77;;
34924;SDS011;21130;51.728;8.748;2022-12-05T08:42:02;30.85;;;24.20;;
34924;SDS011;21130;51.728;8.748;2022-12-05T08:44:28;25.23;;;19.17;;
34924;SDS011;21130;51.728;8.748;2022-12-05T08:46:57;23.67;;;17.88;;
34924;SDS011;21130;51.728;8.748;2022-12-05T08:49:23;26.08;;;18.38;;
34924;SDS011;21130;51.728;8.748;2022-12-05T08:51:50;24.50;;;17.33;;
34924;SDS011;21130;51.728;8.748;2022-12-05T08:54:17;22.10;;;16.95;;
34924;SDS011;21130;51.728;8.748;2022-12-05T08:56:44;24.10;;;17.75;;
34924;SDS011;21130;51.728;8.748;2022-12-05T08:59:10;25.77;;;18.88;;
34924;SDS011;21130;51.728;8.748;2022-12-05T09:01:37;21.88;;;16.80;;
34924;SDS011;21130;51.728;8.748;2022-12-05T09:04:06;23.00;;;17.10;;
34924;SDS011;21130;51.728;8.748;2022-12-05T09:06:34;22.23;;;16.70;;
34924;SDS011;21130;51.728;8.748;2022-12-05T09:09:04;22.05;;;16.98;;
34924;SDS011;21130;51.728;8.748;2022-12-05T09:11:33;23.17;;;18.30;;
34924;SDS011;21130;51.728;8.748;2022-12-05T09:14:02;21.52;;;16.67;;
34924;SDS011;21130;51.728;8.748;2022-12-05T09:16:30;21.60;;;17.45;;
34924;SDS011;21130;51.728;8.748;2022-12-05T09:18:59;20.05;;;16.27;;
34924;SDS011;21130;51.728;8.748;2022-12-05T09:21:29;22.92;;;17.67;;
34924;SDS011;21130;51.728;8.748;2022-12-05T09:23:57;24.23;;;17.38;;
34924;SDS011;21130;51.728;8.748;2022-12-05T09:26:24;22.88;;;16.38;;
34924;SDS011;21130;51.728;8.748;2022-12-05T09:28:52;22.98;;;17.35;;
34924;SDS011;21130;51.728;8.748;2022-12-05T09:31:19;25.13;;;17.90;;
34924;SDS011;21130;51.728;8.748;2022-12-05T09:33:47;21.77;;;17.13;;
34924;SDS011;21130;51.728;8.748;2022-12-05T09:36:16;21.73;;;17.17;;
34924;SDS011;21130;51.728;8.748;2022-12-05T09:38:46;20.70;;;16.13;;
34924;SDS011;21130;51.728;8.748;2022-12-05T09:41:15;23.10;;;16.73;;
34924;SDS011;21130;51.728;8.748;2022-12-05T09:44:14;20.90;;;17.25;;
34924;SDS011;21130;51.728;8.748;2022-12-05T09:46:49;20.73;;;16.60;;
34924;SDS011;21130;51.728;8.748;2022-12-05T09:49:20;21.35;;;16.65;;
34924;SDS011;21130;51.728;8.748;2022-12-05T09:51:49;21.92;;;17.52;;
34924;SDS011;21130;51.728;8.748;2022-12-05T09:54:19;20.40;;;16.58;;
34924;SDS011;21130;51.728;8.748;2022-12-05T09:56:47;19.73;;;16.42;;
34924;SDS011;21130;51.728;8.748;2022-12-05T09:59:16;20.50;;;16.27;;
34924;SDS011;21130;51.728;8.748;2022-12-05T10:01:45;22.33;;;16.55;;
34924;SDS011;21130;51.728;8.748;2022-12-05T10:04:29;20.23;;;16.98;;
34924;SDS011;21130;51.728;8.748;2022-12-05T10:07:13;20.38;;;16.60;;
34924;SDS011;21130;51.728;8.748;2022-12-05T10:09:53;19.38;;;16.63;;
34924;SDS011;21130;51.728;8.748;2022-12-05T10:12:33;19.23;;;16.38;;
34924;SDS011;21130;51.728;8.748;2022-12-05T10:15:10;18.15;;;15.40;;
34924;SDS011;21130;51.728;8.748;2022-12-05T10:17:41;18.00;;;14.85;;
34924;SDS011;21130;51.728;8.748;2022-12-05T10:20:14;19.40;;;16.00;;
34924;SDS011;21130;51.728;8.748;2022-12-05T10:22:46;23.15;;;16.70;;
34924;SDS011;21130;51.728;8.748;2022-12-05T10:25:19;19.55;;;15.82;;
34924;SDS011;21130;51.728;8.748;2022-12-05T10:27:48;19.45;;;16.55;;
34924;SDS011;21130;51.728;8.748;2022-12-05T10:30:17;18.85;;;15.80;;
34924;SDS011;21130;51.728;8.748;2022-12-05T10:32:49;19.50;;;16.23;;
34924;SDS011;21130;51.728;8.748;2022-12-05T10:35:19;21.23;;;16.65;;
34924;SDS011;21130;51.728;8.748;2022-12-05T10:37:48;18.67;;;16.67;;
34924;SDS011;21130;51.728;8.748;2022-12-05T10:40:18;17.92;;;15.23;;
34924;SDS011;21130;51.728;8.748;2022-12-05T10:42:46;18.40;;;15.43;;
34924;SDS011;21130;51.728;8.748;2022-12-05T10:45:15;21.63;;;17.23;;
34924;SDS011;21130;51.728;8.748;2022-12-05T10:47:44;26.35;;;19.73;;
34924;SDS011;21130;51.728;8.748;2022-12-05T10:50:18;21.02;;;18.15;;
34924;SDS011;21130;51.728;8.748;2022-12-05T10:52:48;22.70;;;17.67;;
34924;SDS011;21130;51.728;8.748;2022-12-05T10:55:15;22.83;;;16.50;;
34924;SDS011;21130;51.728;8.748;2022-12-05T10:57:48;20.25;;;17.40;;
34924;SDS011;21130;51.728;8.748;2022-12-05T11:00:18;24.52;;;19.85;;
34924;SDS011;21130;51.728;8.748;2022-12-05T11:02:46;20.30;;;17.77;;
34924;SDS011;21130;51.728;8.748;2022-12-05T11:05:14;17.80;;;15.90;;
34924;SDS011;21130;51.728;8.748;2022-12-05T11:07:44;17.67;;;15.68;;
34924;SDS011;21130;51.728;8.748;2022-12-05T11:10:24;19.92;;;16.60;;
34924;SDS011;21130;51.728;8.748;2022-12-05T11:12:53;18.20;;;16.02;;
34924;SDS011;21130;51.728;8.748;2022-12-05T11:15:22;20.48;;;16.52;;
34924;SDS011;21130;51.728;8.748;2022-12-05T11:17:50;17.05;;;15.13;;
34924;SDS011;21130;51.728;8.748;2022-12-05T11:20:34;16.55;;;14.75;;
34924;SDS011;21130;51.728;8.748;2022-12-05T11:23:19;19.00;;;15.30;;
34924;SDS011;21130;51.728;8.748;2022-12-05T11:25:50;18.60;;;15.82;;
34924;SDS011;21130;51.728;8.748;2022-12-05T11:28:22;20.73;;;15.80;;
34924;SDS011;21130;51.728;8.748;2022-12-05T11:30:55;17.17;;;14.45;;
34924;SDS011;21130;51.728;8.748;2022-12-05T11:33:24;17.50;;;15.02;;
34924;SDS011;21130;51.728;8.748;2022-12-05T11:35:53;17.85;;;15.10;;
34924;SDS011;21130;51.728;8.748;2022-12-05T11:38:23;17.30;;;14.82;;
34924;SDS011;21130;51.728;8.748;2022-12-05T11:40:56;16.27;;;14.05;;
34924;SDS011;21130;51.728;8.748;2022-12-05T11:43:50;16.17;;;14.48;;
34924;SDS011;21130;51.728;8.748;2022-12-05T11:46:29;16.20;;;14.23;;
34924;SDS011;21130;51.728;8.748;2022-12-05T11:49:13;16.40;;;14.63;;
34924;SDS011;21130;51.728;8.748;2022-12-05T11:51:55;17.38;;;14.18;;
34924;SDS011;21130;51.728;8.748;2022-12-05T11:54:38;15.90;;;14.13;;
34924;SDS011;21130;51.728;8.748;2022-12-05T11:57:18;19.08;;;14.80;;
34924;SDS011;21130;51.728;8.748;2022-12-05T12:00:01;17.48;;;15.15;;
34924;SDS011;21130;51.728;8.748;2022-12-05T12:02:42;16.67;;;14.10;;
34924;SDS011;21130;51.728;8.748;2022-12-05T12:05:31;16.63;;;13.55;;
34924;SDS011;21130;51.728;8.748;2022-12-05T12:08:05;16.17;;;14.48;;
34924;SDS011;21130;51.728;8.748;2022-12-05T12:10:46;15.90;;;14.27;;
34924;SDS011;21130;51.728;8.748;2022-12-05T12:13:22;18.00;;;15.35;;
34924;SDS011;21130;51.728;8.748;2022-12-05T12:15:57;17.80;;;15.75;;
34924;SDS011;21130;51.728;8.748;2022-12-05T12:18:38;18.73;;;16.48;;
34924;SDS011;21130;51.728;8.748;2022-12-05T12:21:21;16.75;;;15.02;;
34924;SDS011;21130;51.728;8.748;2022-12-05T12:23:59;17.70;;;15.52;;
34924;SDS011;21130;51.728;8.748;2022-12-05T12:26:38;17.85;;;15.57;;
34924;SDS011;21130;51.728;8.748;2022-12-05T12:29:15;16.38;;;14.68;;
34924;SDS011;21130;51.728;8.748;2022-12-05T12:31:58;16.85;;;14.98;;
34924;SDS011;21130;51.728;8.748;2022-12-05T12:34:47;16.80;;;15.00;;
34924;SDS011;21130;51.728;8.748;2022-12-05T12:37:26;16.08;;;14.40;;
34924;SDS011;21130;51.728;8.748;2022-12-05T12:40:03;16.45;;;14.38;;
34924;SDS011;21130;51.728;8.748;2022-12-05T12:42:39;14.77;;;13.27;;
34924;SDS011;21130;51.728;8.748;2022-12-05T12:45:28;15.65;;;14.05;;
34924;SDS011;21130;51.728;8.748;2022-12-05T12:48:15;15.85;;;14.13;;
34924;SDS011;21130;51.728;8.748;2022-12-05T12:50:53;15.68;;;13.98;;
34924;SDS011;21130;51.728;8.748;2022-12-05T12:53:27;17.02;;;15.23;;
34924;SDS011;21130;51.728;8.748;2022-12-05T12:56:13;16.77;;;14.93;;
34924;SDS011;21130;51.728;8.748;2022-12-05T12:58:49;16.38;;;14.68;;
34924;SDS011;21130;51.728;8.748;2022-12-05T13:01:23;16.50;;;14.75;;
34924;SDS011;21130;51.728;8.748;2022-12-05T13:03:57;17.35;;;15.38;;
34924;SDS011;21130;51.728;8.748;2022-12-05T13:06:31;17.08;;;15.27;;
34924;SDS011;21130;51.728;8.748;2022-12-05T13:09:02;16.90;;;15.10;;
34924;SDS011;21130;51.728;8.748;2022-12-05T13:11:37;16.98;;;15.02;;
34924;SDS011;21130;51.728;8.748;2022-12-05T13:14:08;17.67;;;15.88;;
34924;SDS011;21130;51.728;8.748;2022-12-05T13:16:40;17.60;;;15.70;;
34924;SDS011;21130;51.728;8.748;2022-12-05T13:19:13;17.67;;;15.77;;
34924;SDS011;21130;51.728;8.748;2022-12-05T13:21:49;18.55;;;15.75;;
34924;SDS011;21130;51.728;8.748;2022-12-05T13:24:16;17.05;;;15.25;;
34924;SDS011;21130;51.728;8.748;2022-12-05T13:26:47;19.35;;;16.13;;
34924;SDS011;21130;51.728;8.748;2022-12-05T13:29:39;17.23;;;15.50;;
34924;SDS011;21130;51.728;8.748;2022-12-05T13:32:28;16.60;;;14.68;;
34924;SDS011;21130;51.728;8.748;2022-12-05T13:34:58;18.15;;;16.17;;
34924;SDS011;21130;51.728;8.748;2022-12-05T13:37:26;16.52;;;14.82;;
34924;SDS011;21130;51.728;8.748;2022-12-05T13:40:20;16.92;;;14.90;;
34924;SDS011;21130;51.728;8.748;2022-12-05T13:43:08;15.88;;;14.18;;
34924;SDS011;21130;51.728;8.748;2022-12-05T13:45:37;15.45;;;13.85;;
34924;SDS011;21130;51.728;8.748;2022-12-05T13:48:14;15.70;;;13.98;;
34924;SDS011;21130;51.728;8.748;2022-12-05T13:50:49;17.27;;;15.45;;
34924;SDS011;21130;51.728;8.748;2022-12-05T13:53:23;17.55;;;15.75;;
34924;SDS011;21130;51.728;8.748;2022-12-05T13:55:55;16.35;;;14.48;;
34924;SDS011;21130;51.728;8.748;2022-12-05T14:04:39;17.15;;;15.35;;
34924;SDS011;21130;51.728;8.748;2022-12-05T14:07:09;17.65;;;13.77;;
34924;SDS011;21130;51.728;8.748;2022-12-05T14:12:28;17.45;;;15.45;;
34924;SDS011;21130;51.728;8.748;2022-12-05T14:14:58;19.15;;;17.15;;
34924;SDS011;21130;51.728;8.748;2022-12-05T14:17:26;19.98;;;17.83;;
34924;SDS011;21130;51.728;8.748;2022-12-05T14:20:01;18.05;;;16.15;;
34924;SDS011;21130;51.728;8.748;2022-12-05T14:22:47;17.02;;;15.23;;
34924;SDS011;21130;51.728;8.748;2022-12-05T14:25:36;16.90;;;15.10;;
34924;SDS011;21130;51.728;8.748;2022-12-05T14:28:18;17.13;;;15.32;;
34924;SDS011;21130;51.728;8.748;2022-12-05T14:31:02;16.58;;;14.88;;
34924;SDS011;21130;51.728;8.748;2022-12-05T14:33:41;16.83;;;15.05;;
34924;SDS011;21130;51.728;8.748;2022-12-05T14:36:14;16.20;;;14.55;;
34924;SDS011;21130;51.728;8.748;2022-12-05T14:38:53;16.13;;;14.23;;
34924;SDS011;21130;51.728;8.748;2022-12-05T14:41:21;17.15;;;15.45;;
34924;SDS011;21130;51.728;8.748;2022-12-05T14:43:52;16.98;;;15.20;;
34924;SDS011;21130;51.728;8.748;2022-12-05T14:46:21;17.52;;;15.77;;
34924;SDS011;21130;51.728;8.748;2022-12-05T14:48:52;16.67;;;14.98;;
34924;SDS011;21130;51.728;8.748;2022-12-05T14:54:11;19.40;;;15.23;;
34924;SDS011;21130;51.728;8.748;2022-12-05T14:56:42;18.55;;;16.30;;
34924;SDS011;21130;51.728;8.748;2022-12-05T14:59:16;18.65;;;16.75;;